createdAt,value
2022-11-17T00:04:16.719Z,3.40
2022-11-17T00:09:39.762Z,3.72
2022-11-17T00:15:03.470Z,3.70
2022-11-17T00:20:45.260Z,3.20
2022-11-17T00:26:07.797Z,3.47
2022-11-17T00:31:50.666Z,3.12
2022-11-17T00:37:15.265Z,3.65
2022-11-17T00:42:38.641Z,3.70
2022-11-17T00:48:01.823Z,3.30
2022-11-17T00:53:26.649Z,3.60
2022-11-17T00:58:49.387Z,3.30
2022-11-17T01:04:13.643Z,3.10
2022-11-17T01:09:37.881Z,3.62
2022-11-17T01:15:01.375Z,2.90
2022-11-17T01:20:24.965Z,3.27
2022-11-17T01:25:47.765Z,3.40
2022-11-17T01:31:15.943Z,3.75
2022-11-17T01:37:06.294Z,3.27
2022-11-17T01:42:32.668Z,3.50
2022-11-17T01:48:05.633Z,3.35
2022-11-17T01:53:32.982Z,3.60
2022-11-17T01:59:00.558Z,3.30
2022-11-17T02:04:22.857Z,3.30
2022-11-17T02:09:46.754Z,3.50
2022-11-17T02:15:10.168Z,3.52
2022-11-17T02:20:53.515Z,3.47
2022-11-17T02:27:12.381Z,4.30
2022-11-17T02:32:47.042Z,3.37
2022-11-17T02:38:20.873Z,3.83
2022-11-17T02:49:52.957Z,3.93
2022-11-17T02:55:21.072Z,3.90
2022-11-17T03:00:46.984Z,3.92
2022-11-17T03:06:33.410Z,3.92
2022-11-17T03:12:06.372Z,3.95
2022-11-17T03:17:42.105Z,3.67
2022-11-17T03:23:24.874Z,3.55
2022-11-17T03:28:50.548Z,3.45
2022-11-17T03:34:16.146Z,3.80
2022-11-17T03:39:48.861Z,3.98
2022-11-17T03:45:24.897Z,3.67
2022-11-17T03:51:03.199Z,3.85
2022-11-17T03:56:41.564Z,3.92
2022-11-17T04:02:04.629Z,3.87
2022-11-17T04:07:29.209Z,3.90
2022-11-17T04:13:11.359Z,3.58
2022-11-17T04:18:35.978Z,4.10
2022-11-17T04:23:58.967Z,3.80
2022-11-17T04:29:21.998Z,4.08
2022-11-17T04:34:46.710Z,3.87
2022-11-17T04:40:11.549Z,4.05
2022-11-17T04:45:34.397Z,4.17
2022-11-17T04:51:02.510Z,4.25
2022-11-17T04:56:27.943Z,4.05
2022-11-17T05:01:51.555Z,4.35
2022-11-17T05:07:14.575Z,4.12
2022-11-17T05:12:54.573Z,4.37
2022-11-17T05:18:19.282Z,4.10
2022-11-17T05:23:55.267Z,4.33
2022-11-17T05:29:21.628Z,4.25
2022-11-17T05:34:45.584Z,4.42
2022-11-17T05:40:10.018Z,4.25
2022-11-17T05:45:33.017Z,4.12
2022-11-17T05:50:57.970Z,4.53
2022-11-17T05:56:51.473Z,4.45
2022-11-17T06:02:24.718Z,4.67
2022-11-17T06:07:49.879Z,4.45
2022-11-17T06:13:12.051Z,4.92
2022-11-17T06:18:39.092Z,4.80
2022-11-17T06:24:03.233Z,5.55
2022-11-17T06:29:28.019Z,4.53
2022-11-17T06:34:55.684Z,5.10
2022-11-17T06:40:17.441Z,4.92
2022-11-17T06:45:42.559Z,5.50
2022-11-17T06:51:08.580Z,5.28
2022-11-17T06:56:30.753Z,5.80
2022-11-17T07:01:53.809Z,5.10
2022-11-17T07:07:18.824Z,5.05
2022-11-17T07:12:42.751Z,5.15
2022-11-17T07:18:06.714Z,5.67
2022-11-17T07:23:29.588Z,5.53
2022-11-17T07:28:52.796Z,5.65
2022-11-17T07:34:15.736Z,5.30
2022-11-17T07:39:40.350Z,5.90
2022-11-17T07:45:02.616Z,5.65
2022-11-17T07:50:25.464Z,5.10
2022-11-17T07:55:48.529Z,6.28
2022-11-17T08:01:17.407Z,5.78
2022-11-17T08:06:39.776Z,6.67
2022-11-17T08:12:02.531Z,6.62
2022-11-17T08:17:24.747Z,7.03
2022-11-17T08:22:47.125Z,6.55
2022-11-17T08:28:11.183Z,6.70
2022-11-17T08:33:33.368Z,6.58
2022-11-17T08:38:55.570Z,6.58
2022-11-17T08:44:18.871Z,6.70
2022-11-17T08:49:41.154Z,6.00
2022-11-17T08:55:05.531Z,6.60
2022-11-17T09:00:29.026Z,6.75
2022-11-17T09:05:57.104Z,7.15
2022-11-17T09:11:22.591Z,6.65
2022-11-17T09:16:44.850Z,7.28
2022-11-17T09:22:07.546Z,7.10
2022-11-17T09:27:29.741Z,6.58
2022-11-17T09:32:53.717Z,6.97
2022-11-17T09:38:19.684Z,7.17
2022-11-17T09:44:05.526Z,5.80
2022-11-17T09:49:43.914Z,5.62
2022-11-17T09:55:11.318Z,6.33
2022-11-17T10:00:36.297Z,6.72
2022-11-17T10:05:58.632Z,5.55
2022-11-17T10:11:35.386Z,9.35
2022-11-17T10:17:01.905Z,5.97
2022-11-17T10:22:31.820Z,5.47
2022-11-17T10:27:59.326Z,6.28
2022-11-17T10:33:23.762Z,5.67
2022-11-17T10:38:55.417Z,5.50
2022-11-17T10:44:25.330Z,5.95
2022-11-17T10:49:50.118Z,5.97
2022-11-17T10:55:34.575Z,6.55
2022-11-17T11:01:01.458Z,5.80
2022-11-17T11:06:36.255Z,6.10
2022-11-17T11:12:04.340Z,6.78
2022-11-17T11:17:34.069Z,6.72
2022-11-17T11:28:49.001Z,6.15
2022-11-17T11:34:54.803Z,6.97
2022-11-17T11:40:26.287Z,5.90
2022-11-17T11:46:14.229Z,6.95
2022-11-17T11:51:49.919Z,7.30
2022-11-17T11:57:14.839Z,6.90
2022-11-17T12:03:02.863Z,6.50
2022-11-17T12:14:16.751Z,8.40
2022-11-17T12:19:59.272Z,7.13
2022-11-17T12:31:11.400Z,8.30
2022-11-17T12:36:45.476Z,8.27
2022-11-17T12:42:19.565Z,8.67
2022-11-17T12:48:05.223Z,7.77
2022-11-17T12:53:32.285Z,8.30
2022-11-17T12:59:25.995Z,7.17
2022-11-17T13:05:01.603Z,7.57
2022-11-17T13:10:38.610Z,8.63
2022-11-17T13:16:04.516Z,8.67
2022-11-17T13:21:46.629Z,7.95
2022-11-17T13:27:12.959Z,7.75
2022-11-17T13:32:38.031Z,8.25
2022-11-17T13:38:12.805Z,9.73
2022-11-17T13:43:39.628Z,8.40
2022-11-17T13:49:03.816Z,8.75
2022-11-17T13:54:33.734Z,9.63
2022-11-17T14:05:28.646Z,8.95
2022-11-17T14:10:52.962Z,9.18
2022-11-17T14:16:33.626Z,8.70
2022-11-17T14:22:24.728Z,9.68
2022-11-17T14:27:53.191Z,8.68
2022-11-17T14:33:14.033Z,9.23
2022-11-17T14:38:39.052Z,10.00
2022-11-17T14:44:01.325Z,9.20
2022-11-17T14:49:23.729Z,9.93
2022-11-17T14:54:45.904Z,9.33
2022-11-17T15:00:08.878Z,9.85
2022-11-17T15:05:31.550Z,10.50
2022-11-17T15:10:57.477Z,11.20
2022-11-17T15:16:21.223Z,10.30
2022-11-17T15:21:43.479Z,10.97
2022-11-17T15:27:05.706Z,10.60
2022-11-17T15:32:27.902Z,10.60
2022-11-17T15:37:50.283Z,10.58
2022-11-17T15:43:12.661Z,10.25
2022-11-17T15:48:37.651Z,11.88
2022-11-17T15:54:05.432Z,14.28
2022-11-17T15:59:29.578Z,12.40
2022-11-17T16:04:51.794Z,12.88
2022-11-17T16:10:14.066Z,12.65
2022-11-17T16:15:36.260Z,14.13
2022-11-17T16:21:04.019Z,13.83
2022-11-17T16:26:24.076Z,12.50
2022-11-17T16:31:49.036Z,11.17
2022-11-17T16:37:11.437Z,29.67
2022-11-17T16:42:33.804Z,12.25
2022-11-17T16:47:56.027Z,12.87
2022-11-17T16:53:18.287Z,13.03
2022-11-17T16:58:40.488Z,12.30
2022-11-17T17:04:03.409Z,14.00
2022-11-17T17:09:28.109Z,14.65
2022-11-17T17:14:50.536Z,16.60
2022-11-17T17:20:13.342Z,16.70
2022-11-17T17:25:35.539Z,18.65
2022-11-17T17:31:02.877Z,18.77
2022-11-17T17:36:29.229Z,19.00
2022-11-17T17:41:55.242Z,19.15
2022-11-17T17:47:18.892Z,19.00
2022-11-17T17:52:43.251Z,18.05
2022-11-17T17:58:08.850Z,17.70
2022-11-17T18:03:32.632Z,17.23
2022-11-17T18:08:57.604Z,17.55
2022-11-17T18:14:25.055Z,18.02
2022-11-17T18:19:49.280Z,21.05
2022-11-17T18:25:17.786Z,53.63
2022-11-17T18:30:40.251Z,23.42
2022-11-17T18:36:05.343Z,24.60
2022-11-17T18:41:31.089Z,24.87
2022-11-17T18:46:58.236Z,22.75
2022-11-17T18:52:18.892Z,23.95
2022-11-17T18:57:44.995Z,24.47
2022-11-17T19:03:09.670Z,22.60
2022-11-17T19:08:34.516Z,24.12
2022-11-17T19:13:59.114Z,24.30
2022-11-17T19:19:22.026Z,32.55
2022-11-17T19:24:45.706Z,21.68
2022-11-17T19:30:08.739Z,20.05
2022-11-17T19:35:33.104Z,18.73
2022-11-17T19:40:56.202Z,17.93
2022-11-17T19:46:22.218Z,18.55
2022-11-17T19:51:49.443Z,17.85
2022-11-17T19:57:11.663Z,17.92
2022-11-17T20:02:33.854Z,19.57
2022-11-17T20:07:56.068Z,18.42
2022-11-17T20:13:18.281Z,19.27
2022-11-17T20:18:41.914Z,19.05
2022-11-17T20:24:04.967Z,18.75
2022-11-17T20:29:27.804Z,18.32
2022-11-17T20:34:50.101Z,18.50
2022-11-17T20:40:13.161Z,18.40
2022-11-17T20:45:35.677Z,43.87
2022-11-17T20:51:04.463Z,20.27
2022-11-17T20:56:29.647Z,19.40
2022-11-17T21:01:52.336Z,18.23
2022-11-17T21:07:14.541Z,17.70
2022-11-17T21:12:36.790Z,18.65
2022-11-17T21:18:17.962Z,18.73
2022-11-17T21:23:44.180Z,18.02
2022-11-17T21:29:07.303Z,19.73
2022-11-17T21:34:34.506Z,20.15
2022-11-17T21:39:58.254Z,22.17
2022-11-17T21:45:21.951Z,25.32
2022-11-17T21:50:44.131Z,26.40
2022-11-17T21:56:07.081Z,27.07
2022-11-17T22:01:32.493Z,27.58
2022-11-17T22:06:58.944Z,26.07
2022-11-17T22:12:24.453Z,25.50
2022-11-17T22:17:49.669Z,26.85
2022-11-17T22:23:12.457Z,29.02
2022-11-17T22:28:34.727Z,29.92
2022-11-17T22:33:59.592Z,28.67
2022-11-17T22:39:22.676Z,30.02
2022-11-17T22:44:44.863Z,31.82
2022-11-17T22:50:07.128Z,30.57
2022-11-17T22:55:29.316Z,30.43
2022-11-17T23:00:53.378Z,29.20
2022-11-17T23:06:19.225Z,28.17
2022-11-17T23:11:43.939Z,28.80
2022-11-17T23:17:08.664Z,27.80
2022-11-17T23:22:31.315Z,25.27
2022-11-17T23:27:55.833Z,24.05
2022-11-17T23:33:20.349Z,23.55
2022-11-17T23:38:43.534Z,21.60
2022-11-17T23:44:09.800Z,20.75
2022-11-17T23:49:35.002Z,19.70
2022-11-17T23:54:59.214Z,19.25
